Time;durP1;ratioP1;P1;durP2;ratioP2;P2;SDS_P1;SDS_P2;PMS_P1;PMS_P2;Temp;Humidity;BMP_temperature;BMP_pressure;BME280_temperature;BME280_humidity;BME280_pressure;Samples;Min_cycle;Max_cycle;Signal;HPM_P1;HPM_P2
2022/08/15 00:02:17;;;;;;;9.70;8.40;;;23.30;99.90;;;;;;5121446;28;20388;-82
2022/08/15 00:05:02;;;;;;;8.10;6.90;;;23.40;99.90;;;;;;5122052;28;20391;-82
2022/08/15 00:07:46;;;;;;;9.20;7.23;;;23.40;99.90;;;;;;5121640;28;20424;-82
2022/08/15 00:10:31;;;;;;;8.77;6.67;;;23.30;99.90;;;;;;5121811;28;20505;-82
2022/08/15 00:13:20;;;;;;;8.57;7.83;;;23.40;99.90;;;;;;5122039;28;20440;-82
2022/08/15 00:16:05;;;;;;;7.47;6.80;;;23.20;99.90;;;;;;5121672;28;20396;-82
2022/08/15 00:18:50;;;;;;;7.90;7.10;;;23.10;99.90;;;;;;5120800;28;20405;-82
2022/08/15 00:21:39;;;;;;;7.33;6.53;;;23.20;99.90;;;;;;5121092;28;20411;-82
2022/08/15 00:24:26;;;;;;;7.10;6.40;;;23.20;99.90;;;;;;5120933;28;20438;-82
2022/08/15 00:27:10;;;;;;;7.37;6.77;;;23.10;99.90;;;;;;5120837;28;20438;-81
2022/08/15 00:29:55;;;;;;;7.80;7.13;;;23.20;99.90;;;;;;5121858;28;20371;-81
2022/08/15 00:32:40;;;;;;;8.63;7.73;;;23.20;99.90;;;;;;5121366;28;20395;-81
2022/08/15 00:35:40;;;;;;;8.13;7.00;;;23.10;99.90;;;;;;5121273;28;20402;-81
2022/08/15 00:38:28;;;;;;;10.00;6.93;;;23.10;99.90;;;;;;5120716;28;20393;-81
2022/08/15 00:44:25;;;;;;;7.90;6.80;;;22.90;99.90;;;;;;5120210;28;20450;-81
2022/08/15 00:47:13;;;;;;;7.93;7.23;;;23.00;99.90;;;;;;5120763;28;20453;-81
2022/08/15 00:49:58;;;;;;;8.87;7.73;;;22.90;99.90;;;;;;5120815;28;20467;-81
2022/08/15 00:52:42;;;;;;;10.27;7.67;;;23.10;99.90;;;;;;5105180;28;20472;-81
2022/08/15 00:55:28;;;;;;;7.57;6.70;;;23.10;99.90;;;;;;5120405;28;20395;-81
2022/08/15 00:58:12;;;;;;;8.70;7.80;;;23.10;99.90;;;;;;5105740;28;20467;-80
2022/08/15 01:00:57;;;;;;;6.73;6.10;;;23.00;99.90;;;;;;5119987;28;20386;-81
2022/08/15 01:03:45;;;;;;;6.60;6.00;;;22.90;99.90;;;;;;5120393;28;20388;-82
2022/08/15 01:06:36;;;;;;;6.90;6.20;;;23.00;99.90;;;;;;5114288;28;20521;-81
2022/08/15 01:09:20;;;;;;;8.13;7.43;;;23.00;99.90;;;;;;5121228;28;20467;-81
2022/08/15 01:12:11;;;;;;;8.37;7.57;;;22.90;99.90;;;;;;5121656;28;20383;-81
2022/08/15 01:15:00;;;;;;;7.63;6.93;;;22.80;99.90;;;;;;5122014;28;20464;-82
2022/08/15 01:17:45;;;;;;;7.67;6.27;;;22.60;99.90;;;;;;5121066;28;20849;-82
2022/08/15 01:20:33;;;;;;;7.63;6.83;;;22.50;99.90;;;;;;5121144;28;20525;-82
2022/08/15 01:23:32;;;;;;;12.43;7.30;;;22.50;99.90;;;;;;5121518;28;20387;-82
2022/08/15 01:26:17;;;;;;;8.47;7.67;;;22.40;99.90;;;;;;5121245;28;21073;-82
2022/08/15 01:29:02;;;;;;;10.43;8.07;;;22.30;99.90;;;;;;5121196;28;20387;-82
2022/08/15 01:31:47;;;;;;;9.00;8.20;;;22.40;99.90;;;;;;5124486;28;20391;-82
2022/08/15 01:34:32;;;;;;;9.97;8.97;;;22.40;99.90;;;;;;5136557;28;20403;-82
2022/08/15 01:37:16;;;;;;;11.67;8.27;;;22.30;99.90;;;;;;5138829;28;20397;-82
2022/08/15 01:40:10;;;;;;;12.13;9.00;;;22.20;99.90;;;;;;5142289;28;20401;-81
2022/08/15 01:42:57;;;;;;;9.23;8.07;;;22.30;99.90;;;;;;5141943;28;20398;-79
2022/08/15 01:45:44;;;;;;;12.07;8.63;;;22.20;99.90;;;;;;5109578;28;20442;-81
2022/08/15 01:48:37;;;;;;;8.20;7.40;;;22.10;99.90;;;;;;5123617;28;20875;-81
2022/08/15 01:51:21;;;;;;;8.57;7.13;;;22.20;99.90;;;;;;5123535;28;20379;-81
2022/08/15 01:54:10;;;;;;;8.33;7.30;;;22.20;99.90;;;;;;5107802;28;20375;-80
2022/08/15 01:56:54;;;;;;;9.10;7.63;;;22.00;99.90;;;;;;5107771;28;20430;-80
2022/08/15 01:59:39;;;;;;;13.70;8.67;;;21.90;99.90;;;;;;5123337;28;20429;-81
2022/08/15 02:02:25;;;;;;;7.53;6.83;;;22.10;99.90;;;;;;5122466;28;20444;-81
2022/08/15 02:05:10;;;;;;;8.03;7.13;;;22.10;99.90;;;;;;5123208;28;20387;-79
2022/08/15 02:07:54;;;;;;;7.67;6.97;;;22.10;99.90;;;;;;5123366;28;20388;-79
2022/08/15 02:10:43;;;;;;;8.17;7.40;;;22.00;99.90;;;;;;5123742;28;20384;-81
2022/08/15 02:13:29;;;;;;;8.07;7.27;;;22.00;99.90;;;;;;5123886;28;20887;-81
2022/08/15 02:16:16;;;;;;;8.60;7.77;;;22.10;99.90;;;;;;5122549;28;20399;-81
2022/08/15 02:19:01;;;;;;;8.40;7.57;;;22.10;99.90;;;;;;5123470;28;20419;-81
2022/08/15 02:21:47;;;;;;;10.80;9.80;;;22.20;99.90;;;;;;5122612;28;20383;-81
2022/08/15 02:24:31;;;;;;;8.47;7.57;;;22.20;99.90;;;;;;5123183;28;20387;-81
2022/08/15 02:27:16;;;;;;;8.23;7.30;;;22.10;99.90;;;;;;5122630;28;20478;-79
2022/08/15 02:30:05;;;;;;;12.67;7.70;;;22.10;99.90;;;;;;5127067;28;20395;-79
2022/08/15 02:32:49;;;;;;;9.03;8.13;;;22.20;99.90;;;;;;5125448;28;20436;-81
2022/08/15 02:35:35;;;;;;;7.63;6.83;;;22.30;99.90;;;;;;5108172;28;20430;-81
2022/08/15 02:38:20;;;;;;;8.50;7.70;;;22.50;99.90;;;;;;5123149;28;20402;-81
2022/08/15 02:41:05;;;;;;;7.80;7.00;;;22.50;99.90;;;;;;5122667;28;20387;-81
2022/08/15 02:43:50;;;;;;;9.47;8.47;;;22.60;99.90;;;;;;5107371;28;20962;-81
2022/08/15 02:46:37;;;;;;;10.33;7.97;;;22.50;99.90;;;;;;5122986;28;20516;-81
2022/08/15 02:49:22;;;;;;;8.30;7.50;;;22.50;99.90;;;;;;5122519;28;20376;-82
2022/08/15 02:52:07;;;;;;;11.37;9.07;;;22.40;99.90;;;;;;5122212;28;20391;-81
2022/08/15 02:54:52;;;;;;;12.90;9.00;;;22.30;99.90;;;;;;5122838;28;20388;-82
2022/08/15 02:57:37;;;;;;;10.00;9.07;;;22.20;99.90;;;;;;5106804;28;20427;-81
2022/08/15 03:00:22;;;;;;;8.90;8.10;;;22.00;99.90;;;;;;5122073;28;20398;-81
2022/08/15 03:03:10;;;;;;;10.10;7.90;;;22.00;99.90;;;;;;5122170;28;20852;-81
2022/08/15 03:05:56;;;;;;;9.73;7.47;;;21.90;99.90;;;;;;5121890;28;20945;-81
2022/08/15 03:08:41;;;;;;;8.87;8.03;;;21.80;99.90;;;;;;5121653;28;20411;-81
2022/08/15 03:11:26;;;;;;;8.40;7.70;;;21.70;99.90;;;;;;5121727;28;20375;-82
2022/08/15 03:14:16;;;;;;;9.40;8.03;;;21.70;99.90;;;;;;5122133;28;20376;-81
2022/08/15 03:17:01;;;;;;;11.20;8.20;;;21.70;99.90;;;;;;5121533;28;20771;-80
2022/08/15 03:19:47;;;;;;;9.80;7.97;;;21.60;99.90;;;;;;5121316;28;20383;-81
2022/08/15 03:22:45;;;;;;;10.10;7.60;;;21.60;99.90;;;;;;5121152;28;20741;-80
2022/08/15 03:25:30;;;;;;;7.73;7.03;;;21.70;99.90;;;;;;5120719;28;20462;-80
2022/08/15 03:28:16;;;;;;;9.23;8.33;;;21.60;99.90;;;;;;5119768;28;20387;-81
2022/08/15 03:31:04;;;;;;;8.77;7.40;;;21.50;99.90;;;;;;5119416;28;20469;-79
2022/08/15 03:33:49;;;;;;;9.90;8.73;;;21.50;99.90;;;;;;5118983;28;20418;-80
2022/08/15 03:36:33;;;;;;;8.83;7.97;;;21.50;99.90;;;;;;5119062;28;20433;-80
2022/08/15 03:39:17;;;;;;;9.33;8.10;;;21.50;99.90;;;;;;5119307;28;20486;-79
2022/08/15 03:42:09;;;;;;;9.00;7.57;;;21.50;99.90;;;;;;5119070;28;20391;-80
2022/08/15 03:44:54;;;;;;;9.13;8.23;;;21.50;99.90;;;;;;5118422;28;20459;-80
2022/08/15 03:47:40;;;;;;;11.73;8.87;;;21.40;99.90;;;;;;5111594;28;20496;-81
2022/08/15 03:50:24;;;;;;;8.20;7.40;;;21.50;99.90;;;;;;5126151;27;20401;-81
2022/08/15 03:53:08;;;;;;;8.87;7.97;;;21.50;99.90;;;;;;5134669;27;20903;-80
2022/08/15 03:55:52;;;;;;;8.90;8.03;;;21.30;99.90;;;;;;5116890;28;20499;-81
2022/08/15 03:58:38;;;;;;;8.10;7.40;;;21.10;99.90;;;;;;5119297;28;20399;-80
2022/08/15 04:01:28;;;;;;;10.60;7.90;;;21.10;99.90;;;;;;5119350;28;20425;-79
2022/08/15 04:04:13;;;;;;;8.53;7.53;;;21.10;99.90;;;;;;5119329;28;20384;-79
2022/08/15 04:06:57;;;;;;;9.07;8.23;;;20.80;99.90;;;;;;5119316;28;20518;-79
2022/08/15 04:09:43;;;;;;;8.80;7.70;;;20.90;99.90;;;;;;5118523;28;20463;-79
2022/08/15 04:12:30;;;;;;;10.43;9.10;;;20.80;99.90;;;;;;5118980;28;20433;-79
2022/08/15 04:15:16;;;;;;;10.97;9.20;;;20.70;99.90;;;;;;5118837;28;20386;-79
2022/08/15 04:18:00;;;;;;;9.50;8.50;;;20.80;99.90;;;;;;5118774;28;20383;-79
2022/08/15 04:20:45;;;;;;;8.33;7.60;;;20.70;99.90;;;;;;5119278;28;20437;-79
2022/08/15 04:23:30;;;;;;;9.10;8.27;;;20.60;99.90;;;;;;5103833;28;20898;-80
2022/08/15 04:26:16;;;;;;;10.10;8.20;;;20.50;99.90;;;;;;5103514;28;20527;-79
2022/08/15 04:29:01;;;;;;;9.10;7.80;;;20.40;99.90;;;;;;5119709;28;20391;-80
2022/08/15 04:31:45;;;;;;;9.77;8.73;;;20.50;99.90;;;;;;5119148;28;20378;-79
2022/08/15 04:34:30;;;;;;;12.43;9.10;;;20.60;99.90;;;;;;5119230;28;20430;-79
2022/08/15 04:37:14;;;;;;;10.63;9.60;;;20.80;99.90;;;;;;5119317;28;20390;-79
2022/08/15 04:40:00;;;;;;;11.40;8.47;;;20.80;99.90;;;;;;5118899;28;20383;-78
2022/08/15 04:42:48;;;;;;;8.80;7.73;;;20.90;99.90;;;;;;5118719;28;20624;-80
2022/08/15 04:45:34;;;;;;;10.33;9.20;;;20.90;99.90;;;;;;5118165;28;20434;-81
2022/08/15 04:48:19;;;;;;;9.23;8.40;;;21.00;99.90;;;;;;5118361;28;20495;-80
2022/08/15 04:51:05;;;;;;;10.07;7.93;;;21.10;99.90;;;;;;5118946;28;20379;-82
2022/08/15 04:53:50;;;;;;;9.47;8.57;;;21.10;99.90;;;;;;5118713;28;20383;-79
2022/08/15 04:56:34;;;;;;;19.40;8.43;;;21.20;99.90;;;;;;5103198;28;20454;-80
2022/08/15 04:59:19;;;;;;;10.87;7.90;;;21.20;99.90;;;;;;5117736;28;20399;-79
2022/08/15 05:02:07;;;;;;;8.60;7.03;;;21.30;99.90;;;;;;5118419;28;20474;-83
2022/08/15 05:04:51;;;;;;;9.20;7.73;;;21.30;99.90;;;;;;5121653;28;20386;-79
2022/08/15 05:07:36;;;;;;;9.90;7.50;;;21.50;99.90;;;;;;5122199;28;20456;-81
2022/08/15 05:10:21;;;;;;;10.40;7.73;;;21.50;99.90;;;;;;5122675;28;20382;-80
2022/08/15 05:13:16;;;;;;;8.00;7.20;;;21.50;99.90;;;;;;5122583;28;20421;-80
2022/08/15 05:16:04;;;;;;;10.53;7.30;;;21.70;99.90;;;;;;5122242;28;20391;-79
2022/08/15 05:18:48;;;;;;;8.80;6.60;;;21.70;99.90;;;;;;5122771;28;20387;-81
2022/08/15 05:21:33;;;;;;;7.53;6.67;;;21.90;99.90;;;;;;5121872;28;20401;-79
2022/08/15 05:24:17;;;;;;;10.87;7.00;;;22.00;99.90;;;;;;5115608;28;20491;-81
2022/08/15 05:27:02;;;;;;;7.63;7.03;;;22.00;99.90;;;;;;5122525;28;20442;-81
2022/08/15 05:29:47;;;;;;;9.23;7.07;;;22.20;99.90;;;;;;5123579;28;20460;-80
2022/08/15 05:32:32;;;;;;;7.77;6.30;;;22.20;99.90;;;;;;5123053;28;20411;-82
2022/08/15 05:35:17;;;;;;;6.93;6.20;;;22.00;99.90;;;;;;5123806;28;20375;-81
2022/08/15 05:38:06;;;;;;;6.80;6.00;;;22.00;99.90;;;;;;5123409;28;20407;-81
2022/08/15 05:41:16;;;;;;;7.07;6.47;;;22.10;99.90;;;;;;5123626;28;20440;-80
2022/08/15 05:44:25;;;;;;;9.80;6.47;;;22.30;99.90;;;;;;5123541;28;20508;-82
2022/08/15 05:47:30;;;;;;;9.73;6.27;;;22.10;99.90;;;;;;5122981;28;20523;-82
2022/08/15 05:50:27;;;;;;;6.90;6.13;;;22.20;99.90;;;;;;5123095;28;20401;-81
2022/08/15 05:53:32;;;;;;;7.57;6.70;;;22.20;99.90;;;;;;5123087;28;20391;-81
2022/08/15 05:56:37;;;;;;;5.50;5.00;;;22.30;99.90;;;;;;5123621;28;20410;-82
2022/08/15 05:59:28;;;;;;;6.17;5.67;;;22.50;99.90;;;;;;5108169;28;20394;-81
2022/08/15 06:02:29;;;;;;;10.77;6.70;;;22.40;99.90;;;;;;5124006;28;20392;-82
2022/08/15 06:05:33;;;;;;;5.40;4.80;;;22.50;99.90;;;;;;5123628;28;20428;-81
2022/08/15 06:08:23;;;;;;;6.20;5.60;;;22.50;99.90;;;;;;5123576;28;20399;-82
2022/08/15 06:11:13;;;;;;;7.27;5.70;;;22.60;99.90;;;;;;5123804;28;20413;-82
2022/08/15 06:14:09;;;;;;;7.10;6.40;;;22.80;99.90;;;;;;5123889;28;20392;-81
2022/08/15 06:16:58;;;;;;;6.03;5.30;;;23.00;99.90;;;;;;5107811;28;20391;-82
2022/08/15 06:19:49;;;;;;;8.23;5.77;;;23.00;99.90;;;;;;5124091;28;20464;-82
2022/08/15 06:23:05;;;;;;;6.20;5.60;;;23.10;99.90;;;;;;5124570;28;20402;-82
2022/08/15 06:26:06;;;;;;;6.40;5.70;;;23.10;99.90;;;;;;5123687;28;20438;-82
2022/08/15 06:29:19;;;;;;;5.73;5.20;;;22.80;99.90;;;;;;5124816;28;20394;-81
2022/08/15 06:32:11;;;;;;;5.17;4.60;;;23.10;99.90;;;;;;5123857;28;20383;-82
2022/08/15 06:35:19;;;;;;;5.87;5.17;;;23.30;99.90;;;;;;5123894;28;20395;-82
2022/08/15 06:38:34;;;;;;;6.30;4.23;;;23.20;99.90;;;;;;5098553;28;20419;-81
2022/08/15 06:41:33;;;;;;;6.67;6.07;;;23.40;99.90;;;;;;5104473;28;20400;-81
2022/08/15 06:44:19;;;;;;;8.63;5.70;;;22.90;99.90;;;;;;5114231;28;20458;-79
2022/08/15 06:47:05;;;;;;;11.60;5.37;;;23.00;99.90;;;;;;5129524;28;20431;-81
2022/08/15 06:49:55;;;;;;;5.10;4.60;;;23.10;99.90;;;;;;5140868;28;20490;-80
2022/08/15 06:52:49;;;;;;;6.53;3.77;;;23.20;99.90;;;;;;5140726;28;20407;-81
2022/08/15 06:55:45;;;;;;;6.00;4.40;;;23.20;99.90;;;;;;5140807;28;20399;-81
2022/08/15 06:58:45;;;;;;;5.03;3.97;;;23.20;99.90;;;;;;5112271;28;20884;-81
2022/08/15 07:01:48;;;;;;;3.93;3.63;;;23.40;99.90;;;;;;5122790;28;20374;-81
2022/08/15 07:05:04;;;;;;;6.20;4.73;;;23.40;99.90;;;;;;5117197;28;20453;-81
2022/08/15 07:07:59;;;;;;;7.73;4.00;;;23.70;99.90;;;;;;5122685;28;20783;-80
2022/08/15 07:10:52;;;;;;;4.30;4.00;;;23.50;99.90;;;;;;5121936;28;20376;-81
2022/08/15 07:13:54;;;;;;;5.80;4.50;;;23.40;99.90;;;;;;5121414;28;20399;-81
2022/08/15 07:17:05;;;;;;;6.00;3.70;;;23.50;99.90;;;;;;5122002;28;20386;-81
2022/08/15 07:19:50;;;;;;;4.53;4.00;;;23.60;99.90;;;;;;5122204;28;20575;-81
2022/08/15 07:22:35;;;;;;;6.77;4.60;;;23.80;99.90;;;;;;5122697;28;20401;-81
2022/08/15 07:25:32;;;;;;;11.37;4.33;;;24.00;99.90;;;;;;5121440;28;20379;-81
2022/08/15 07:28:22;;;;;;;6.20;4.60;;;24.00;99.90;;;;;;5105872;28;20391;-82
2022/08/15 07:31:13;;;;;;;4.50;4.10;;;23.90;99.90;;;;;;5122123;28;20390;-81
2022/08/15 07:34:05;;;;;;;4.87;4.37;;;23.80;99.90;;;;;;5120905;28;20399;-82
2022/08/15 07:37:15;;;;;;;4.77;4.17;;;24.00;99.90;;;;;;5121549;28;20387;-82
2022/08/15 07:40:06;;;;;;;6.50;5.20;;;24.20;99.90;;;;;;5121700;28;20402;-83
2022/08/15 07:42:51;;;;;;;4.40;3.97;;;24.00;99.90;;;;;;5121743;28;20738;-81
2022/08/15 07:45:39;;;;;;;7.30;4.07;;;24.20;99.90;;;;;;5119983;28;20407;-81
2022/08/15 07:48:27;;;;;;;6.03;4.43;;;24.30;99.90;;;;;;5120051;28;20399;-81
2022/08/15 07:51:25;;;;;;;6.90;4.10;;;24.20;99.90;;;;;;5119732;28;20391;-82
2022/08/15 07:54:32;;;;;;;6.20;3.57;;;24.30;99.90;;;;;;5121122;28;20371;-81
2022/08/15 07:57:31;;;;;;;5.93;4.47;;;24.40;99.90;;;;;;5120557;28;20430;-83
2022/08/15 08:00:19;;;;;;;4.90;3.97;;;24.10;99.90;;;;;;5120080;28;20455;-80
2022/08/15 08:03:17;;;;;;;6.07;4.80;;;23.80;99.90;;;;;;5104050;28;20403;-81
2022/08/15 08:06:16;;;;;;;4.80;4.40;;;23.80;99.90;;;;;;5120974;28;20478;-80
2022/08/15 08:09:17;;;;;;;5.47;4.00;;;24.00;99.90;;;;;;5100858;28;20392;-81
2022/08/15 08:12:28;;;;;;;6.10;4.70;;;23.90;99.90;;;;;;5113515;28;20394;-82
2022/08/15 08:15:22;;;;;;;6.20;4.37;;;23.90;99.90;;;;;;5092014;28;20921;-81
2022/08/15 08:18:35;;;;;;;4.87;4.47;;;24.20;99.90;;;;;;5100094;28;20411;-79
2022/08/15 08:21:36;;;;;;;9.03;4.20;;;24.10;99.90;;;;;;5084610;28;20434;-82
2022/08/15 08:24:55;;;;;;;6.73;3.80;;;24.30;99.90;;;;;;5099809;28;20380;-80
2022/08/15 08:27:57;;;;;;;5.57;4.80;;;24.50;99.90;;;;;;5099347;28;20459;-82
2022/08/15 08:31:11;;;;;;;4.90;4.50;;;24.60;99.90;;;;;;5100848;28;20395;-82
2022/08/15 08:34:15;;;;;;;6.93;4.90;;;24.70;99.90;;;;;;5100487;28;20384;-82
2022/08/15 08:37:14;;;;;;;5.70;4.40;;;24.40;99.90;;;;;;5100750;28;20857;-82
2022/08/15 08:43:40;;;;;;;6.20;3.97;;;24.10;99.90;;;;;;5100022;28;21012;-82
2022/08/15 08:46:55;;;;;;;7.30;4.33;;;24.20;99.90;;;;;;5099314;28;20451;-81
2022/08/15 08:50:10;;;;;;;11.53;5.23;;;24.10;99.90;;;;;;5084770;28;20446;-82
2022/08/15 08:53:13;;;;;;;4.57;4.17;;;24.20;99.90;;;;;;5100383;28;20861;-81
2022/08/15 08:56:06;;;;;;;7.23;4.30;;;24.50;99.90;;;;;;5084183;28;20907;-82
2022/08/15 08:59:00;;;;;;;4.90;4.27;;;24.40;99.90;;;;;;5084937;28;20959;-82
2022/08/15 09:01:50;;;;;;;6.50;4.97;;;24.50;99.90;;;;;;5099153;28;20389;-81
2022/08/15 09:04:41;;;;;;;6.40;5.47;;;24.40;99.90;;;;;;5100155;28;20388;-81
2022/08/15 09:07:31;;;;;;;5.30;4.90;;;24.50;99.90;;;;;;5100258;28;20519;-83
2022/08/15 09:10:25;;;;;;;7.97;4.57;;;24.30;99.90;;;;;;5102963;28;20412;-80
2022/08/15 09:16:24;;;;;;;5.60;4.93;;;24.30;99.90;;;;;;5089450;28;20388;-79
2022/08/15 09:19:29;;;;;;;3.37;3.17;;;24.30;99.90;;;;;;5105286;28;20407;-80
2022/08/15 09:22:14;;;;;;;5.60;4.87;;;24.40;99.90;;;;;;5102133;28;20380;-79
2022/08/15 09:24:59;;;;;;;6.53;4.27;;;24.30;99.90;;;;;;5102495;28;20412;-80
2022/08/15 09:28:01;;;;;;;7.77;4.80;;;24.40;99.90;;;;;;5099791;28;20440;-81
2022/08/15 09:30:49;;;;;;;5.17;4.67;;;24.80;99.90;;;;;;5098271;28;20922;-81
2022/08/15 09:33:51;;;;;;;4.90;4.33;;;25.20;99.90;;;;;;5099472;28;20430;-82
2022/08/15 09:36:46;;;;;;;4.70;4.40;;;25.50;99.90;;;;;;5083674;28;20457;-80
2022/08/15 09:40:12;;;;;;;5.20;4.70;;;25.50;99.90;;;;;;5080987;28;20563;-78
2022/08/15 09:43:33;;;;;;;4.77;4.27;;;25.50;99.90;;;;;;5068079;28;20452;-79
2022/08/15 09:46:49;;;;;;;4.00;3.50;;;25.70;99.90;;;;;;5074506;28;20455;-80
2022/08/15 09:49:52;;;;;;;6.23;4.33;;;25.60;99.90;;;;;;5060879;28;20381;-80
2022/08/15 09:52:57;;;;;;;4.20;3.90;;;25.40;99.90;;;;;;5047090;28;20412;-81
2022/08/15 09:55:46;;;;;;;4.60;4.20;;;25.10;99.90;;;;;;5064168;28;20441;-82
2022/08/15 09:58:37;;;;;;;5.60;4.17;;;25.10;99.90;;;;;;5050368;28;20548;-80
2022/08/15 10:01:28;;;;;;;4.90;4.50;;;25.50;99.90;;;;;;5060126;28;20452;-79
2022/08/15 10:04:17;;;;;;;6.63;6.03;;;26.10;99.90;;;;;;5045036;28;20536;-79
2022/08/15 10:07:31;;;;;;;3.87;3.57;;;25.80;99.90;;;;;;5030888;28;20495;-81
2022/08/15 10:10:25;;;;;;;4.57;4.27;;;26.80;99.90;;;;;;5048825;28;20948;-80
2022/08/15 10:13:23;;;;;;;4.73;3.63;;;27.10;99.90;;;;;;5047303;28;20556;-82
2022/08/15 10:16:41;;;;;;;4.20;3.47;;;27.20;99.90;;;;;;5080495;28;20384;-78
2022/08/15 10:19:34;;;;;;;5.60;3.60;;;26.90;99.90;;;;;;5079000;28;20452;-81
2022/08/15 10:22:41;;;;;;;4.37;3.97;;;26.70;99.90;;;;;;5064821;28;20397;-81
2022/08/15 10:25:30;;;;;;;5.47;4.40;;;26.70;99.90;;;;;;5097967;28;20431;-82
2022/08/15 10:28:22;;;;;;;5.10;3.87;;;26.60;99.90;;;;;;5101264;28;20438;-79
2022/08/15 10:31:26;;;;;;;4.57;3.87;;;26.80;99.90;;;;;;5071452;28;20395;-80
2022/08/15 10:34:25;;;;;;;4.33;3.90;;;26.80;99.90;;;;;;5085700;28;20387;-80
2022/08/15 10:37:29;;;;;;;4.57;3.97;;;27.40;99.90;;;;;;5087647;28;20395;-80
2022/08/15 10:40:38;;;;;;;4.10;3.30;;;27.80;99.90;;;;;;5103726;28;20883;-80
2022/08/15 10:43:40;;;;;;;3.77;3.47;;;27.60;99.90;;;;;;5078231;28;20795;-81
2022/08/15 10:46:58;;;;;;;3.70;3.40;;;27.00;99.90;;;;;;5086867;28;20430;-81
2022/08/15 10:50:21;;;;;;;3.10;2.90;;;27.40;99.90;;;;;;5088120;28;20391;-80
2022/08/15 10:53:29;;;;;;;8.57;3.53;;;27.20;99.90;;;;;;5088176;28;20884;-79
2022/08/15 10:56:25;;;;;;;3.80;3.50;;;27.70;99.90;;;;;;5106298;28;20431;-79
2022/08/15 10:59:18;;;;;;;4.07;3.77;;;28.00;99.90;;;;;;5079133;28;20477;-80
2022/08/15 11:02:16;;;;;;;3.60;3.30;;;28.00;99.90;;;;;;5102113;28;20832;-80
2022/08/15 11:05:09;;;;;;;3.30;3.00;;;28.80;99.90;;;;;;5103686;28;20383;-80
2022/08/15 11:07:55;;;;;;;3.80;3.50;;;28.90;99.90;;;;;;5088563;28;20742;-81
2022/08/15 11:10:40;;;;;;;11.80;3.90;;;28.50;99.90;;;;;;5088773;28;20417;-79
2022/08/15 11:13:27;;;;;;;3.90;3.60;;;28.10;99.90;;;;;;5094722;28;20379;-82
2022/08/15 11:16:16;;;;;;;4.37;3.97;;;28.00;99.90;;;;;;5108972;28;20521;-79
2022/08/15 11:19:15;;;;;;;6.03;3.20;;;27.90;99.90;;;;;;5123992;28;20387;-81
2022/08/15 11:22:07;;;;;;;4.63;4.10;;;27.80;99.90;;;;;;5122545;28;20391;-81
2022/08/15 11:24:58;;;;;;;4.20;3.87;;;27.80;99.90;;;;;;5107014;28;20395;-80
2022/08/15 11:27:44;;;;;;;4.27;3.13;;;27.70;99.90;;;;;;5125957;28;20446;-81
2022/08/15 11:30:31;;;;;;;3.23;2.93;;;27.40;99.90;;;;;;5109456;28;20458;-81
2022/08/15 11:33:25;;;;;;;4.63;3.97;;;27.30;99.90;;;;;;5108673;28;20391;-80
2022/08/15 11:36:17;;;;;;;3.33;3.03;;;27.00;99.90;;;;;;5123688;28;20478;-81
2022/08/15 11:39:13;;;;;;;2.90;2.53;;;27.20;99.90;;;;;;5108350;28;20398;-82
2022/08/15 11:42:03;;;;;;;3.23;3.03;;;27.00;99.90;;;;;;5123818;28;20839;-80
2022/08/15 11:44:58;;;;;;;4.33;2.80;;;27.00;99.90;;;;;;5123372;28;20472;-82
2022/08/15 11:47:50;;;;;;;4.93;3.53;;;27.10;99.90;;;;;;5124120;28;20501;-82
2022/08/15 11:50:38;;;;;;;3.33;3.03;;;27.80;99.90;;;;;;5122853;28;20465;-82
2022/08/15 11:53:29;;;;;;;4.17;3.20;;;28.30;99.90;;;;;;5124410;28;20383;-82
2022/08/15 11:56:22;;;;;;;3.30;3.00;;;27.80;99.90;;;;;;5125127;28;20445;-82
2022/08/15 11:59:14;;;;;;;8.80;3.37;;;27.00;99.90;;;;;;5108859;28;20391;-82
2022/08/15 12:02:14;;;;;;;4.80;3.40;;;27.20;99.90;;;;;;5107649;28;20436;-82
2022/08/15 12:05:12;;;;;;;2.87;2.53;;;27.70;99.90;;;;;;5110218;28;20398;-82
2022/08/15 12:08:02;;;;;;;4.50;2.97;;;27.90;99.90;;;;;;5109021;28;20394;-81
2022/08/15 12:10:47;;;;;;;3.53;2.67;;;27.10;99.90;;;;;;5124215;28;20391;-82
2022/08/15 12:13:51;;;;;;;2.93;2.60;;;27.40;99.90;;;;;;5124123;28;20394;-82
2022/08/15 12:16:53;;;;;;;3.80;2.70;;;28.30;99.90;;;;;;5060046;28;20463;-82
2022/08/15 12:19:45;;;;;;;3.03;2.83;;;29.50;99.90;;;;;;5059695;28;20493;-81
2022/08/15 12:22:36;;;;;;;3.47;2.97;;;28.60;99.90;;;;;;5059586;28;20783;-83
2022/08/15 12:25:22;;;;;;;3.00;2.80;;;28.50;99.90;;;;;;5062206;28;20593;-83
2022/08/15 12:28:06;;;;;;;5.97;3.33;;;28.70;99.90;;;;;;5062659;28;20457;-82
2022/08/15 12:30:55;;;;;;;3.20;3.00;;;28.50;99.90;;;;;;5062596;28;20470;-82
2022/08/15 12:33:39;;;;;;;4.00;2.97;;;28.40;99.50;;;;;;5062352;28;20389;-83
2022/08/15 12:36:25;;;;;;;3.80;2.70;;;28.20;99.40;;;;;;5061731;28;20588;-83
2022/08/15 12:39:28;;;;;;;2.93;2.67;;;27.90;99.50;;;;;;5041876;28;20764;-82
2022/08/15 12:42:17;;;;;;;3.73;3.43;;;28.50;99.80;;;;;;5040416;28;20824;-82
2022/08/15 12:45:09;;;;;;;2.80;2.60;;;28.70;97.80;;;;;;5040962;28;20534;-83
2022/08/15 12:47:55;;;;;;;2.87;2.67;;;29.10;98.20;;;;;;5064046;28;20589;-80
2022/08/15 12:50:39;;;;;;;3.23;2.93;;;30.40;94.80;;;;;;5079175;28;20407;-83
2022/08/15 12:53:23;;;;;;;2.53;2.33;;;30.90;93.30;;;;;;5080346;28;20185;-82
2022/08/15 12:56:08;;;;;;;3.17;2.92;;;31.30;91.90;;;;;;5065797;28;20319;-83
2022/08/15 12:58:53;;;;;;;3.30;3.10;;;30.60;90.90;;;;;;5080900;28;20535;-81
2022/08/15 13:01:39;;;;;;;2.70;2.50;;;31.10;91.40;;;;;;5066667;28;20236;-82
2022/08/15 13:04:26;;;;;;;3.47;3.17;;;31.70;90.00;;;;;;5081610;28;20193;-83
2022/08/15 13:07:12;;;;;;;3.35;3.05;;;32.70;82.30;;;;;;5079659;28;20193;-81
2022/08/15 13:09:58;;;;;;;3.65;3.05;;;33.40;79.70;;;;;;5096364;28;20188;-82
2022/08/15 13:12:42;;;;;;;2.55;2.35;;;31.40;80.40;;;;;;5121864;28;20160;-80
2022/08/15 13:15:27;;;;;;;2.88;2.67;;;31.50;79.20;;;;;;5121891;28;20207;-82
2022/08/15 13:18:17;;;;;;;2.88;2.67;;;30.50;79.20;;;;;;5121830;28;20163;-84
2022/08/15 13:24:03;;;;;;;3.60;3.30;;;30.00;81.70;;;;;;5121719;28;20283;-83
2022/08/15 13:26:48;;;;;;;2.28;2.13;;;30.90;82.40;;;;;;5109795;28;20204;-81
2022/08/15 13:29:34;;;;;;;3.83;3.08;;;31.50;79.20;;;;;;5126074;28;20165;-81
2022/08/15 13:32:18;;;;;;;2.92;2.72;;;30.70;80.20;;;;;;5125926;28;20213;-82
2022/08/15 13:35:06;;;;;;;3.20;2.60;;;30.20;83.20;;;;;;5124063;28;20156;-81
2022/08/15 13:37:51;;;;;;;2.78;2.58;;;31.20;81.80;;;;;;5110847;28;20244;-81
2022/08/15 13:40:38;;;;;;;3.00;2.80;;;30.20;82.90;;;;;;5110469;28;20157;-81
2022/08/15 13:43:23;;;;;;;3.63;2.78;;;30.30;83.90;;;;;;5110389;28;20711;-81
2022/08/15 13:46:10;;;;;;;3.97;2.60;;;29.20;83.90;;;;;;5128293;28;20204;-82
2022/08/15 13:48:58;;;;;;;3.22;2.92;;;30.10;86.20;;;;;;5111995;28;20579;-82
2022/08/15 13:51:48;;;;;;;3.03;2.83;;;30.70;83.10;;;;;;5097521;28;20264;-83
2022/08/15 13:54:32;;;;;;;2.55;2.35;;;30.90;83.30;;;;;;5125454;28;20205;-82
2022/08/15 13:57:19;;;;;;;2.83;2.63;;;31.60;80.20;;;;;;5124301;28;20486;-82
2022/08/15 14:00:10;;;;;;;2.70;2.50;;;30.70;82.90;;;;;;5125161;28;20218;-82
2022/08/15 14:02:54;;;;;;;3.05;2.67;;;31.50;79.20;;;;;;5110711;28;20589;-84
2022/08/15 14:05:39;;;;;;;2.70;2.50;;;30.80;79.20;;;;;;5125157;28;20156;-83
2022/08/15 14:08:23;;;;;;;2.95;2.75;;;32.00;78.70;;;;;;5130134;28;20487;-83
2022/08/15 14:11:08;;;;;;;5.53;2.90;;;31.90;73.10;;;;;;5115947;28;20156;-82
2022/08/15 14:13:52;;;;;;;2.95;2.65;;;32.10;73.30;;;;;;5129821;28;20180;-83
2022/08/15 14:16:40;;;;;;;3.80;2.28;;;32.60;72.90;;;;;;5132116;28;20247;-82
2022/08/15 14:19:25;;;;;;;2.65;2.45;;;33.20;71.80;;;;;;5117333;28;20242;-80
2022/08/15 14:22:29;;;;;;;2.38;2.17;;;31.80;73.60;;;;;;5127575;28;20335;-82
2022/08/15 14:25:14;;;;;;;2.58;2.38;;;32.30;70.90;;;;;;5065632;28;20201;-82
2022/08/15 14:27:58;;;;;;;2.58;2.38;;;32.60;72.60;;;;;;5067556;28;20210;-81
2022/08/15 14:30:43;;;;;;;2.17;2.03;;;32.20;71.90;;;;;;5068469;28;20250;-82
2022/08/15 14:33:27;;;;;;;3.60;2.58;;;31.80;72.40;;;;;;5056557;28;20205;-80
2022/08/15 14:36:12;;;;;;;2.58;2.38;;;32.10;72.80;;;;;;5051209;28;20271;-82
2022/08/15 14:38:57;;;;;;;2.38;2.17;;;31.90;70.90;;;;;;5062169;28;20282;-81
2022/08/15 14:41:44;;;;;;;3.15;2.50;;;31.80;72.50;;;;;;5062393;28;20163;-80
2022/08/15 14:44:30;;;;;;;3.28;2.47;;;31.60;69.80;;;;;;5060808;28;20241;-82
2022/08/15 14:47:17;;;;;;;2.75;2.28;;;30.80;71.20;;;;;;5047248;28;20761;-82
2022/08/15 14:50:04;;;;;;;2.20;2.00;;;30.70;73.10;;;;;;5062257;28;20205;-83
2022/08/15 14:52:48;;;;;;;2.45;2.25;;;31.20;71.20;;;;;;5064162;28;20555;-79
2022/08/15 14:55:33;;;;;;;2.30;2.10;;;30.80;71.10;;;;;;5082128;28;20197;-84
2022/08/15 14:58:18;;;;;;;3.85;2.67;;;30.20;70.10;;;;;;5094223;28;20165;-82
2022/08/15 15:01:03;;;;;;;2.53;2.08;;;29.30;75.10;;;;;;5108827;28;20613;-81
2022/08/15 15:03:51;;;;;;;2.10;2.00;;;30.40;75.40;;;;;;5110006;28;20181;-81